createdAt,value
2017-08-21T00:01:22.014Z,3.00
2017-08-21T00:03:49.630Z,2.40
2017-08-21T00:06:17.187Z,3.40
2017-08-21T00:08:44.755Z,2.77
2017-08-21T00:11:12.262Z,2.47
2017-08-21T00:13:39.850Z,2.70
2017-08-21T00:16:07.458Z,3.30
2017-08-21T00:18:34.975Z,3.20
2017-08-21T00:21:02.531Z,3.03
2017-08-21T00:23:30.906Z,3.40
2017-08-21T00:26:00.207Z,3.00
2017-08-21T00:28:28.503Z,2.33
2017-08-21T00:30:56.054Z,2.80
2017-08-21T00:33:24.349Z,2.20
2017-08-21T00:35:51.847Z,2.80
2017-08-21T00:38:20.166Z,2.30
2017-08-21T00:40:48.511Z,2.50
2017-08-21T00:43:16.006Z,2.80
2017-08-21T00:45:43.664Z,2.50
2017-08-21T00:48:11.158Z,2.40
2017-08-21T00:50:38.679Z,2.87
2017-08-21T00:53:06.191Z,2.37
2017-08-21T00:55:33.798Z,2.97
2017-08-21T00:58:01.363Z,2.27
2017-08-21T01:00:28.947Z,2.60
2017-08-21T01:02:57.162Z,2.50
2017-08-21T01:05:24.750Z,2.20
2017-08-21T01:07:52.251Z,2.77
2017-08-21T01:10:19.865Z,2.70
2017-08-21T01:12:47.430Z,3.37
2017-08-21T01:15:14.991Z,2.83
2017-08-21T01:17:42.486Z,2.83
2017-08-21T01:20:09.998Z,2.80
2017-08-21T01:22:37.558Z,2.93
2017-08-21T01:25:05.075Z,3.07
2017-08-21T01:27:32.574Z,3.27
2017-08-21T01:30:00.143Z,2.73
2017-08-21T01:32:28.307Z,2.67
2017-08-21T01:34:55.903Z,2.73
2017-08-21T01:37:23.743Z,2.70
2017-08-21T01:39:51.242Z,2.77
2017-08-21T01:42:18.763Z,2.80
2017-08-21T01:44:46.306Z,3.23
2017-08-21T01:47:13.969Z,3.10
2017-08-21T01:49:41.527Z,2.50
2017-08-21T01:52:09.067Z,2.60
2017-08-21T01:54:37.367Z,2.50
2017-08-21T01:57:05.023Z,2.43
2017-08-21T01:59:32.686Z,2.20
2017-08-21T02:02:00.246Z,2.83
2017-08-21T02:04:28.271Z,2.57
2017-08-21T02:06:58.738Z,2.40
2017-08-21T02:09:26.307Z,2.63
2017-08-21T02:11:54.062Z,3.20
2017-08-21T02:14:21.984Z,2.77
2017-08-21T02:16:49.591Z,2.37
2017-08-21T02:19:17.162Z,2.77
2017-08-21T02:21:44.713Z,2.90
2017-08-21T02:24:12.410Z,2.50
2017-08-21T02:26:40.850Z,2.37
2017-08-21T02:29:08.471Z,2.83
2017-08-21T02:31:36.075Z,2.67
2017-08-21T02:34:03.630Z,2.80
2017-08-21T02:36:31.150Z,2.47
2017-08-21T02:38:59.375Z,2.27
2017-08-21T02:41:26.890Z,2.83
2017-08-21T02:43:54.419Z,2.33
2017-08-21T02:46:21.931Z,2.83
2017-08-21T02:48:49.494Z,2.60
2017-08-21T02:51:17.470Z,2.63
2017-08-21T02:53:45.027Z,2.53
2017-08-21T02:56:12.592Z,2.77
2017-08-21T02:58:40.149Z,2.43
2017-08-21T03:01:08.423Z,2.80
2017-08-21T03:03:35.983Z,2.90
2017-08-21T03:06:03.561Z,2.83
2017-08-21T03:08:31.087Z,2.73
2017-08-21T03:10:59.370Z,2.63
2017-08-21T03:13:27.646Z,2.93
2017-08-21T03:15:55.306Z,2.40
2017-08-21T03:18:22.966Z,2.80
2017-08-21T03:20:50.634Z,3.10
2017-08-21T03:23:18.191Z,2.53
2017-08-21T03:25:45.745Z,3.63
2017-08-21T03:28:13.510Z,2.63
2017-08-21T03:30:41.028Z,3.13
2017-08-21T03:33:08.635Z,2.80
2017-08-21T03:35:36.139Z,3.23
2017-08-21T03:38:03.664Z,3.30
2017-08-21T03:40:31.210Z,2.93
2017-08-21T03:42:58.775Z,2.67
2017-08-21T03:45:26.623Z,3.00
2017-08-21T03:47:54.147Z,3.10
2017-08-21T03:50:21.746Z,2.27
2017-08-21T03:52:49.326Z,2.73
2017-08-21T03:55:16.838Z,2.67
2017-08-21T03:57:44.330Z,2.50
2017-08-21T04:00:11.886Z,2.90
2017-08-21T04:02:39.451Z,3.20
2017-08-21T04:05:06.971Z,3.03
2017-08-21T04:07:34.564Z,3.07
2017-08-21T04:10:02.954Z,3.00
2017-08-21T04:12:30.598Z,3.47
2017-08-21T04:14:58.162Z,3.10
2017-08-21T04:17:25.658Z,3.10
2017-08-21T04:19:53.170Z,3.30
2017-08-21T04:22:20.663Z,3.67
2017-08-21T04:24:48.206Z,2.70
2017-08-21T04:27:15.822Z,2.97
2017-08-21T04:29:43.406Z,3.47
2017-08-21T04:32:11.257Z,2.90
2017-08-21T04:34:40.470Z,3.40
2017-08-21T04:37:08.034Z,2.83
2017-08-21T04:39:35.590Z,2.77
2017-08-21T04:42:03.853Z,2.80
2017-08-21T04:44:32.255Z,3.10
2017-08-21T04:47:00.036Z,3.50
2017-08-21T04:49:27.566Z,3.80
2017-08-21T04:51:55.116Z,2.97
2017-08-21T04:54:23.402Z,3.17
2017-08-21T04:56:50.914Z,3.13
2017-08-21T04:59:18.538Z,3.37
2017-08-21T05:01:46.054Z,3.33
2017-08-21T05:04:14.354Z,3.27
2017-08-21T05:06:42.854Z,3.23
2017-08-21T05:09:10.498Z,2.93
2017-08-21T05:11:38.055Z,3.30
2017-08-21T05:14:05.562Z,2.87
2017-08-21T05:16:33.175Z,3.27
2017-08-21T05:19:00.944Z,3.10
2017-08-21T05:21:28.723Z,2.80
2017-08-21T05:23:56.393Z,3.50
2017-08-21T05:26:23.923Z,3.40
2017-08-21T05:28:51.487Z,2.87
2017-08-21T05:31:19.042Z,3.73
2017-08-21T05:33:47.110Z,2.97
2017-08-21T05:36:14.627Z,3.03
2017-08-21T05:38:42.132Z,2.90
2017-08-21T05:41:09.708Z,3.60
2017-08-21T05:43:37.222Z,3.10
2017-08-21T05:46:05.528Z,3.07
2017-08-21T05:48:33.038Z,3.10
2017-08-21T05:51:00.691Z,2.97
2017-08-21T05:53:28.298Z,3.00
2017-08-21T05:55:55.794Z,3.73
2017-08-21T05:58:23.343Z,3.13
2017-08-21T06:00:51.226Z,3.70
2017-08-21T06:03:19.477Z,3.70
2017-08-21T06:05:47.014Z,4.10
2017-08-21T06:08:14.574Z,3.27
2017-08-21T06:10:42.119Z,3.90
2017-08-21T06:13:10.404Z,4.20
2017-08-21T06:15:37.970Z,3.90
2017-08-21T06:18:05.531Z,3.93
2017-08-21T06:20:33.086Z,4.07
2017-08-21T06:23:00.679Z,4.10
2017-08-21T06:25:28.211Z,4.63
2017-08-21T06:27:55.734Z,5.20
2017-08-21T06:30:23.279Z,4.20
2017-08-21T06:32:50.991Z,4.03
2017-08-21T06:35:18.491Z,4.57
2017-08-21T06:37:46.112Z,4.30
2017-08-21T06:40:13.703Z,5.17
2017-08-21T06:42:42.967Z,4.93
2017-08-21T06:45:10.942Z,4.73
2017-08-21T06:47:38.498Z,4.83
2017-08-21T06:50:06.046Z,4.10
2017-08-21T06:52:34.251Z,4.43
2017-08-21T06:55:01.771Z,5.10
2017-08-21T06:57:30.054Z,5.20
2017-08-21T06:59:58.322Z,4.80
2017-08-21T07:02:26.602Z,4.77
2017-08-21T07:04:54.266Z,4.87
2017-08-21T07:07:21.826Z,4.50
2017-08-21T07:09:49.686Z,5.00
2017-08-21T07:12:17.264Z,5.50
2017-08-21T07:14:44.919Z,8.07
2017-08-21T07:17:12.418Z,4.53
2017-08-21T07:19:40.030Z,4.80
2017-08-21T07:22:07.594Z,4.80
2017-08-21T07:24:35.151Z,5.07
2017-08-21T07:27:02.667Z,4.20
2017-08-21T07:29:30.283Z,4.57
2017-08-21T07:31:57.783Z,4.70
2017-08-21T07:34:25.394Z,5.20
2017-08-21T07:36:52.952Z,3.83
2017-08-21T07:39:20.459Z,5.70
2017-08-21T07:41:48.062Z,4.50
2017-08-21T07:44:15.627Z,6.37
2017-08-21T07:46:43.202Z,4.83
2017-08-21T07:49:10.703Z,4.57
2017-08-21T07:51:38.298Z,5.40
2017-08-21T07:54:05.862Z,4.20
2017-08-21T07:56:33.390Z,5.03
2017-08-21T07:59:01.667Z,4.47
2017-08-21T08:01:29.957Z,4.80
2017-08-21T08:03:58.243Z,4.00
2017-08-21T08:06:25.906Z,4.60
2017-08-21T08:08:53.402Z,3.97
2017-08-21T08:11:21.028Z,4.20
2017-08-21T08:13:48.659Z,3.97
2017-08-21T08:16:17.375Z,3.87
2017-08-21T08:18:44.936Z,4.10
2017-08-21T08:21:12.490Z,4.80
2017-08-21T08:23:39.990Z,4.63
2017-08-21T08:26:07.606Z,4.10
2017-08-21T08:28:35.115Z,4.50
2017-08-21T08:31:02.828Z,4.70
2017-08-21T08:33:30.397Z,3.60
2017-08-21T08:35:57.910Z,4.30
2017-08-21T08:38:25.507Z,4.30
2017-08-21T08:40:53.062Z,5.20
2017-08-21T08:43:20.595Z,4.63
2017-08-21T08:45:48.892Z,4.00
2017-08-21T08:48:16.673Z,4.53
2017-08-21T08:50:44.207Z,3.60
2017-08-21T08:53:12.479Z,4.13
2017-08-21T08:55:40.055Z,4.00
2017-08-21T08:58:07.724Z,3.70
2017-08-21T09:00:35.587Z,3.33
2017-08-21T09:03:03.144Z,3.57
2017-08-21T09:05:31.085Z,4.00
2017-08-21T09:07:59.391Z,4.37
2017-08-21T09:10:26.887Z,4.37
2017-08-21T09:12:54.640Z,3.33
2017-08-21T09:15:22.258Z,3.57
2017-08-21T09:17:50.543Z,3.93
2017-08-21T09:20:18.107Z,3.90
2017-08-21T09:22:45.662Z,3.93
2017-08-21T09:25:13.311Z,3.90
2017-08-21T09:27:41.597Z,3.50
2017-08-21T09:30:09.091Z,3.33
2017-08-21T09:32:36.929Z,3.60
2017-08-21T09:35:04.439Z,3.00
2017-08-21T09:37:31.994Z,3.00
2017-08-21T09:40:00.025Z,3.47
2017-08-21T09:42:27.774Z,3.60
2017-08-21T09:44:55.338Z,3.70
2017-08-21T09:47:22.867Z,3.00
2017-08-21T09:49:51.755Z,3.17
2017-08-21T09:52:20.072Z,3.40
2017-08-21T09:54:47.619Z,2.57
2017-08-21T09:57:15.907Z,2.10
2017-08-21T09:59:44.090Z,2.63
2017-08-21T10:02:11.684Z,3.30
2017-08-21T10:05:17.497Z,2.70
2017-08-21T10:07:45.679Z,2.80
2017-08-21T10:10:13.198Z,3.13
2017-08-21T10:12:40.703Z,3.90
2017-08-21T10:15:08.231Z,3.50
2017-08-21T10:17:35.740Z,2.77
2017-08-21T10:20:03.261Z,2.90
2017-08-21T10:22:30.767Z,3.13
2017-08-21T10:24:58.371Z,2.87
2017-08-21T10:27:25.875Z,2.87
2017-08-21T10:29:53.604Z,2.90
2017-08-21T10:32:21.108Z,2.47
2017-08-21T10:34:48.631Z,2.17
2017-08-21T10:37:16.135Z,2.30
2017-08-21T10:39:43.658Z,2.50
2017-08-21T10:42:11.359Z,2.30
2017-08-21T10:44:39.247Z,2.60
2017-08-21T10:47:06.811Z,2.23
2017-08-21T10:49:34.406Z,2.37
2017-08-21T10:52:01.932Z,2.93
2017-08-21T10:54:29.492Z,2.73
2017-08-21T10:56:57.011Z,3.47
2017-08-21T10:59:25.422Z,3.83
2017-08-21T11:01:52.949Z,2.87
2017-08-21T11:04:20.462Z,2.90
2017-08-21T11:06:47.998Z,2.50
2017-08-21T11:09:15.964Z,2.00
2017-08-21T11:11:43.484Z,2.53
2017-08-21T11:14:11.087Z,2.90
2017-08-21T11:16:39.359Z,3.07
2017-08-21T11:19:06.863Z,2.53
2017-08-21T11:21:34.692Z,2.07
2017-08-21T11:24:02.208Z,2.27
2017-08-21T11:26:29.794Z,2.07
2017-08-21T11:28:57.300Z,2.50
2017-08-21T11:31:25.539Z,2.50
2017-08-21T11:33:53.099Z,2.40
2017-08-21T11:36:20.612Z,2.20
2017-08-21T11:38:48.208Z,2.70
2017-08-21T11:41:15.991Z,1.80
2017-08-21T11:43:43.512Z,2.60
2017-08-21T11:46:11.067Z,2.60
2017-08-21T11:48:38.587Z,2.57
2017-08-21T11:51:06.095Z,2.67
2017-08-21T11:53:34.496Z,2.30
2017-08-21T11:56:01.996Z,2.30
2017-08-21T11:58:30.243Z,1.93
2017-08-21T12:00:57.775Z,2.20
2017-08-21T12:03:25.539Z,2.47
2017-08-21T12:05:53.098Z,2.50
2017-08-21T12:08:20.652Z,2.40
2017-08-21T12:10:48.160Z,2.20
2017-08-21T12:13:15.815Z,2.20
2017-08-21T12:15:43.331Z,2.47
2017-08-21T12:18:10.859Z,2.13
2017-08-21T12:20:38.760Z,1.83
2017-08-21T12:23:06.314Z,2.13
2017-08-21T12:25:34.679Z,1.90
2017-08-21T12:28:02.211Z,2.43
2017-08-21T12:30:30.659Z,2.50
2017-08-21T12:32:58.291Z,1.93
2017-08-21T12:35:25.812Z,2.10
2017-08-21T12:37:53.319Z,2.23
2017-08-21T12:40:20.838Z,2.40
2017-08-21T12:42:48.440Z,1.93
2017-08-21T12:45:16.171Z,2.50
2017-08-21T12:47:43.727Z,2.17
2017-08-21T12:50:11.305Z,2.20
2017-08-21T12:52:38.903Z,2.40
2017-08-21T12:55:06.423Z,2.20
2017-08-21T12:57:33.923Z,2.67
2017-08-21T13:00:01.549Z,2.50
2017-08-21T13:02:29.056Z,2.40
2017-08-21T13:04:56.579Z,2.33
2017-08-21T13:07:25.103Z,2.50
2017-08-21T13:09:53.240Z,2.17
2017-08-21T13:12:20.738Z,2.20
2017-08-21T13:14:48.259Z,2.07
2017-08-21T13:17:15.807Z,2.30
2017-08-21T13:19:43.979Z,2.50
2017-08-21T13:22:11.484Z,3.00
2017-08-21T13:24:39.075Z,2.37
2017-08-21T13:27:06.643Z,2.60
2017-08-21T13:29:34.918Z,2.97
2017-08-21T13:32:02.904Z,1.97
2017-08-21T13:34:30.460Z,2.07
2017-08-21T13:36:58.043Z,2.63
2017-08-21T13:39:25.559Z,2.53
2017-08-21T13:41:53.054Z,2.20
2017-08-21T13:44:20.584Z,2.30
2017-08-21T13:46:48.088Z,3.07
2017-08-21T13:49:15.591Z,2.80
2017-08-21T13:51:43.107Z,2.47
2017-08-21T13:54:10.616Z,2.20
2017-08-21T13:56:38.136Z,2.10
2017-08-21T13:59:05.728Z,2.23
2017-08-21T14:01:33.288Z,2.20
2017-08-21T14:04:01.191Z,2.10
2017-08-21T14:06:28.712Z,2.50
2017-08-21T14:08:56.215Z,2.80
2017-08-21T14:11:23.727Z,2.50
2017-08-21T14:13:51.231Z,2.43
2017-08-21T14:16:18.752Z,2.47
2017-08-21T14:18:46.274Z,2.70
2017-08-21T14:21:14.306Z,2.37
2017-08-21T14:23:41.816Z,3.30
2017-08-21T14:26:09.335Z,3.57
2017-08-21T14:28:36.839Z,2.70
2017-08-21T14:31:04.403Z,2.37
2017-08-21T14:33:32.000Z,2.43
2017-08-21T14:35:59.619Z,2.07
2017-08-21T14:38:27.663Z,2.30
2017-08-21T14:40:55.183Z,2.67
2017-08-21T14:43:22.687Z,2.33
2017-08-21T14:45:50.267Z,2.30
2017-08-21T14:48:19.256Z,2.23
2017-08-21T14:50:46.815Z,2.43
2017-08-21T14:53:14.486Z,2.10
2017-08-21T14:55:42.043Z,2.33
2017-08-21T14:58:09.554Z,2.50
2017-08-21T15:00:37.154Z,2.30
2017-08-21T15:03:04.711Z,2.00
2017-08-21T15:05:32.547Z,2.37
2017-08-21T15:08:00.067Z,3.17
2017-08-21T15:10:27.611Z,2.43
2017-08-21T15:12:55.133Z,2.23
2017-08-21T15:15:22.631Z,2.20
2017-08-21T15:17:50.276Z,2.20
2017-08-21T15:20:18.499Z,2.13
2017-08-21T15:22:46.023Z,2.27
2017-08-21T15:25:14.393Z,1.80
2017-08-21T15:27:41.915Z,2.20
2017-08-21T15:30:10.160Z,2.97
2017-08-21T15:32:37.803Z,2.00
2017-08-21T15:35:05.317Z,2.17
2017-08-21T15:37:33.612Z,2.43
2017-08-21T15:40:01.175Z,2.20
2017-08-21T15:42:28.706Z,2.40
2017-08-21T15:44:57.094Z,2.20
2017-08-21T15:47:24.595Z,2.27
2017-08-21T15:49:52.118Z,2.30
2017-08-21T15:52:20.370Z,2.00
2017-08-21T15:54:48.683Z,2.37
2017-08-21T15:57:16.190Z,2.03
2017-08-21T15:59:43.703Z,2.70
2017-08-21T16:02:11.211Z,2.10
2017-08-21T16:04:38.760Z,2.50
2017-08-21T16:07:06.371Z,2.53
2017-08-21T16:09:33.891Z,2.30
2017-08-21T16:12:01.607Z,2.90
2017-08-21T16:14:29.122Z,2.10
2017-08-21T16:16:56.811Z,2.40
2017-08-21T16:19:24.331Z,2.20
2017-08-21T16:21:51.926Z,2.30
2017-08-21T16:24:19.465Z,2.43
2017-08-21T16:26:46.967Z,2.20
2017-08-21T16:29:14.466Z,2.60
2017-08-21T16:31:41.994Z,2.13
2017-08-21T16:34:09.523Z,2.10
2017-08-21T16:36:37.127Z,1.90
2017-08-21T16:39:04.739Z,2.00
2017-08-21T16:41:32.302Z,2.20
2017-08-21T16:43:59.807Z,1.90
2017-08-21T16:46:27.336Z,2.10
2017-08-21T16:48:55.091Z,1.90
2017-08-21T16:51:22.615Z,1.97
2017-08-21T16:53:50.119Z,2.13
2017-08-21T16:56:17.654Z,2.00
2017-08-21T16:58:45.211Z,2.23
2017-08-21T17:01:12.867Z,1.90
2017-08-21T17:03:40.375Z,2.17
2017-08-21T17:06:07.923Z,2.07
2017-08-21T17:08:35.435Z,2.47
2017-08-21T17:11:02.939Z,2.90
2017-08-21T17:13:30.520Z,2.47
2017-08-21T17:15:58.029Z,2.90
2017-08-21T17:18:25.543Z,2.50
2017-08-21T17:20:53.054Z,2.27
2017-08-21T17:23:20.575Z,2.87
2017-08-21T17:25:48.106Z,2.40
2017-08-21T17:28:15.714Z,2.47
2017-08-21T17:30:43.491Z,1.90
2017-08-21T17:33:11.015Z,2.30
2017-08-21T17:35:38.525Z,2.30
2017-08-21T17:38:06.215Z,2.37
2017-08-21T17:40:33.715Z,2.40
2017-08-21T17:43:01.243Z,2.50
2017-08-21T17:45:29.427Z,2.50
2017-08-21T17:47:57.018Z,2.70
2017-08-21T17:50:24.524Z,2.50
2017-08-21T17:52:52.047Z,2.40
2017-08-21T17:55:19.547Z,2.47
2017-08-21T17:57:47.254Z,2.90
2017-08-21T18:00:14.803Z,3.47
2017-08-21T18:02:42.307Z,2.83
2017-08-21T18:05:09.919Z,2.40
2017-08-21T18:07:37.427Z,2.93
2017-08-21T18:10:05.055Z,3.13
2017-08-21T18:12:32.560Z,2.90
2017-08-21T18:15:00.089Z,2.67
2017-08-21T18:17:27.590Z,2.83
2017-08-21T18:19:55.112Z,2.90
2017-08-21T18:22:22.627Z,2.57
2017-08-21T18:24:50.151Z,2.43
2017-08-21T18:27:17.661Z,2.50
2017-08-21T18:29:45.208Z,2.80
2017-08-21T18:32:16.866Z,2.83
2017-08-21T18:34:44.395Z,3.23
2017-08-21T18:37:11.902Z,4.20
2017-08-21T18:39:39.439Z,3.80
2017-08-21T18:42:07.531Z,3.33
2017-08-21T18:44:35.052Z,4.10
2017-08-21T18:47:02.551Z,3.60
2017-08-21T18:49:30.099Z,3.07
2017-08-21T18:51:57.643Z,3.10
2017-08-21T18:54:25.195Z,3.10
2017-08-21T18:56:52.789Z,3.27
2017-08-21T18:59:20.404Z,3.10
2017-08-21T19:01:47.966Z,3.40
2017-08-21T19:04:15.467Z,3.30
2017-08-21T19:06:43.087Z,2.50
2017-08-21T19:09:10.583Z,2.80
2017-08-21T19:11:38.211Z,3.20
2017-08-21T19:14:05.715Z,3.50
2017-08-21T19:16:33.239Z,3.40
2017-08-21T19:19:00.743Z,3.73
2017-08-21T19:21:28.276Z,3.40
2017-08-21T19:23:55.823Z,3.77
2017-08-21T19:26:23.342Z,3.60
2017-08-21T19:28:50.914Z,3.13
2017-08-21T19:31:18.986Z,2.80
2017-08-21T19:33:46.535Z,3.10
2017-08-21T19:36:14.519Z,3.10
2017-08-21T19:38:42.027Z,3.20
2017-08-21T19:41:09.555Z,3.30
2017-08-21T19:43:37.092Z,3.23
2017-08-21T19:46:04.811Z,3.10
2017-08-21T19:48:32.843Z,3.70
2017-08-21T19:51:00.339Z,3.37
2017-08-21T19:53:27.900Z,3.30
2017-08-21T19:55:55.424Z,2.70
2017-08-21T19:58:22.959Z,3.00
2017-08-21T20:00:51.231Z,3.20
2017-08-21T20:03:18.791Z,3.10
2017-08-21T20:05:46.360Z,3.20
2017-08-21T20:08:13.874Z,3.40
2017-08-21T20:10:41.376Z,3.10
2017-08-21T20:13:08.899Z,4.30
2017-08-21T20:15:36.534Z,3.43
2017-08-21T20:18:04.078Z,3.97
2017-08-21T20:20:31.602Z,3.40
2017-08-21T20:22:59.167Z,3.10
2017-08-21T20:25:26.667Z,3.30
2017-08-21T20:27:54.194Z,3.50
2017-08-21T20:30:22.286Z,3.90
2017-08-21T20:32:49.907Z,3.90
2017-08-21T20:35:18.287Z,3.03
2017-08-21T20:37:45.835Z,3.90
2017-08-21T20:40:13.374Z,4.40
2017-08-21T20:42:40.962Z,3.33
2017-08-21T20:45:08.524Z,3.70
2017-08-21T20:47:36.035Z,3.30
2017-08-21T20:50:03.655Z,3.47
2017-08-21T20:52:31.924Z,3.10
2017-08-21T20:54:59.539Z,3.00
2017-08-21T20:57:27.052Z,3.40
2017-08-21T20:59:54.606Z,3.07
2017-08-21T21:02:22.267Z,2.90
2017-08-21T21:04:49.812Z,3.30
2017-08-21T21:07:17.387Z,4.73
2017-08-21T21:09:44.991Z,3.60
2017-08-21T21:12:12.594Z,3.70
2017-08-21T21:14:40.336Z,3.13
2017-08-21T21:17:07.931Z,2.93
2017-08-21T21:19:35.485Z,2.97
2017-08-21T21:22:03.084Z,3.43
2017-08-21T21:24:30.614Z,4.00
2017-08-21T21:26:58.164Z,3.70
2017-08-21T21:29:25.687Z,2.90
2017-08-21T21:31:53.206Z,3.20
2017-08-21T21:34:20.872Z,3.30
2017-08-21T21:36:48.695Z,3.80
2017-08-21T21:39:16.239Z,4.20
2017-08-21T21:41:43.743Z,3.30
2017-08-21T21:44:11.560Z,3.53
2017-08-21T21:46:39.801Z,3.83
2017-08-21T21:49:07.303Z,3.33
2017-08-21T21:51:34.895Z,3.60
2017-08-21T21:54:02.491Z,3.30
2017-08-21T21:56:30.029Z,3.80
2017-08-21T21:58:57.551Z,4.00
2017-08-21T22:01:25.110Z,24.57
2017-08-21T22:03:52.619Z,16.50
2017-08-21T22:06:20.335Z,5.80
2017-08-21T22:08:47.859Z,4.93
2017-08-21T22:11:15.363Z,4.20
2017-08-21T22:13:42.900Z,5.10
2017-08-21T22:16:10.964Z,4.70
2017-08-21T22:18:38.541Z,3.97
2017-08-21T22:21:06.039Z,4.10
2017-08-21T22:23:33.559Z,4.50
2017-08-21T22:26:01.058Z,4.73
2017-08-21T22:28:29.339Z,3.93
2017-08-21T22:30:56.859Z,4.37
2017-08-21T22:33:25.076Z,4.67
2017-08-21T22:35:52.608Z,4.23
2017-08-21T22:38:20.395Z,4.20
2017-08-21T22:40:47.923Z,4.00
2017-08-21T22:43:15.799Z,3.80
2017-08-21T22:45:43.415Z,4.27
2017-08-21T22:48:10.923Z,4.03
2017-08-21T22:50:38.490Z,4.07
2017-08-21T22:53:06.005Z,4.40
2017-08-21T22:55:33.516Z,4.77
2017-08-21T22:58:01.115Z,4.23
2017-08-21T23:00:28.685Z,4.60
2017-08-21T23:02:56.247Z,4.20
2017-08-21T23:05:23.747Z,4.20
2017-08-21T23:07:51.295Z,4.37
2017-08-21T23:10:18.795Z,3.90
2017-08-21T23:12:47.018Z,4.23
2017-08-21T23:15:14.707Z,3.77
2017-08-21T23:17:42.210Z,3.77
2017-08-21T23:20:09.864Z,3.33
2017-08-21T23:22:38.287Z,4.07
2017-08-21T23:25:05.807Z,4.33
2017-08-21T23:27:33.358Z,4.00
2017-08-21T23:30:00.899Z,4.17
2017-08-21T23:32:28.401Z,3.70
2017-08-21T23:34:56.030Z,3.70
2017-08-21T23:37:23.550Z,5.10
2017-08-21T23:39:51.126Z,5.03
2017-08-21T23:42:18.727Z,5.60
2017-08-21T23:44:46.381Z,5.03
2017-08-21T23:47:14.003Z,5.20
2017-08-21T23:49:41.605Z,5.40
2017-08-21T23:52:09.144Z,4.77
2017-08-21T23:54:36.795Z,4.90
2017-08-21T23:57:04.475Z,5.17
2017-08-21T23:59:31.999Z,4.30
